sensor_id;sensor_type;location;lat;lon;timestamp;noise_LAeq;noise_LA_min;noise_LA_max;noise_LA01;noise_LA95
66335;Laerm;53138;51.496;6.410;2022-12-11T00:00:04;37.04;32.19;42.05;;
66335;Laerm;53138;51.496;6.410;2022-12-11T00:00:14;40.32;35.05;44.50;;
66335;Laerm;53138;51.496;6.410;2022-12-11T00:00:24;35.67;33.08;38.67;;
66335;Laerm;53138;51.496;6.410;2022-12-11T00:00:36;34.52;32.35;36.48;;
66335;Laerm;53138;51.496;6.410;2022-12-11T00:00:47;34.29;32.45;36.06;;
66335;Laerm;53138;51.496;6.410;2022-12-11T00:00:57;34.74;32.48;36.98;;
66335;Laerm;53138;51.496;6.410;2022-12-11T00:01:11;34.67;32.58;37.30;;
66335;Laerm;53138;51.496;6.410;2022-12-11T00:01:22;39.65;34.61;44.23;;
66335;Laerm;53138;51.496;6.410;2022-12-11T00:01:32;35.62;33.21;39.39;;
66335;Laerm;53138;51.496;6.410;2022-12-11T00:01:42;34.19;32.44;36.62;;
66335;Laerm;53138;51.496;6.410;2022-12-11T00:01:52;34.23;32.09;36.14;;
66335;Laerm;53138;51.496;6.410;2022-12-11T00:02:03;34.54;32.52;36.49;;
66335;Laerm;53138;51.496;6.410;2022-12-11T00:02:13;36.72;33.78;42.40;;
66335;Laerm;53138;51.496;6.410;2022-12-11T00:02:23;42.86;35.97;48.18;;
66335;Laerm;53138;51.496;6.410;2022-12-11T00:02:34;36.20;32.60;39.93;;
66335;Laerm;53138;51.496;6.410;2022-12-11T00:02:44;37.63;33.88;41.95;;
66335;Laerm;53138;51.496;6.410;2022-12-11T00:02:54;45.65;36.78;51.41;;
66335;Laerm;53138;51.496;6.410;2022-12-11T00:03:05;36.49;31.56;42.30;;
66335;Laerm;53138;51.496;6.410;2022-12-11T00:03:16;33.04;31.50;35.37;;
66335;Laerm;53138;51.496;6.410;2022-12-11T00:03:26;33.01;31.21;34.98;;
66335;Laerm;53138;51.496;6.410;2022-12-11T00:03:36;32.99;31.10;35.28;;
66335;Laerm;53138;51.496;6.410;2022-12-11T00:03:47;33.06;31.36;35.40;;
66335;Laerm;53138;51.496;6.410;2022-12-11T00:03:57;32.91;31.01;35.05;;
66335;Laerm;53138;51.496;6.410;2022-12-11T00:04:08;32.97;31.22;35.67;;
66335;Laerm;53138;51.496;6.410;2022-12-11T00:04:18;32.96;30.87;39.67;;
66335;Laerm;53138;51.496;6.410;2022-12-11T00:04:28;33.25;30.73;35.64;;
66335;Laerm;53138;51.496;6.410;2022-12-11T00:04:38;36.16;32.19;40.65;;
66335;Laerm;53138;51.496;6.410;2022-12-11T00:04:48;37.69;33.52;41.84;;
66335;Laerm;53138;51.496;6.410;2022-12-11T00:04:58;35.14;32.86;37.79;;
66335;Laerm;53138;51.496;6.410;2022-12-11T00:05:09;34.56;31.57;37.72;;
66335;Laerm;53138;51.496;6.410;2022-12-11T00:05:19;34.39;31.72;39.14;;
66335;Laerm;53138;51.496;6.410;2022-12-11T00:05:29;34.93;32.80;38.49;;
66335;Laerm;53138;51.496;6.410;2022-12-11T00:05:40;34.73;32.43;37.38;;
66335;Laerm;53138;51.496;6.410;2022-12-11T00:05:50;34.11;32.27;36.65;;
66335;Laerm;53138;51.496;6.410;2022-12-11T00:06:03;33.94;31.91;35.91;;
66335;Laerm;53138;51.496;6.410;2022-12-11T00:06:14;34.51;31.89;36.65;;
66335;Laerm;53138;51.496;6.410;2022-12-11T00:06:24;35.49;32.75;40.01;;
66335;Laerm;53138;51.496;6.410;2022-12-11T00:06:35;42.23;35.14;48.16;;
66335;Laerm;53138;51.496;6.410;2022-12-11T00:06:45;36.50;32.37;41.76;;
66335;Laerm;53138;51.496;6.410;2022-12-11T00:06:59;34.03;31.94;38.37;;
66335;Laerm;53138;51.496;6.410;2022-12-11T00:07:09;59.79;33.80;83.09;;
66335;Laerm;53138;51.496;6.410;2022-12-11T00:07:19;52.89;32.43;62.92;;
66335;Laerm;53138;51.496;6.410;2022-12-11T00:07:29;55.71;47.74;62.83;;
66335;Laerm;53138;51.496;6.410;2022-12-11T00:07:40;47.38;35.42;61.81;;
66335;Laerm;53138;51.496;6.410;2022-12-11T00:07:50;40.70;35.95;44.70;;
66335;Laerm;53138;51.496;6.410;2022-12-11T00:08:00;35.78;32.26;38.65;;
66335;Laerm;53138;51.496;6.410;2022-12-11T00:08:11;34.37;32.15;36.49;;
66335;Laerm;53138;51.496;6.410;2022-12-11T00:08:21;34.84;32.59;37.01;;
66335;Laerm;53138;51.496;6.410;2022-12-11T00:08:31;34.52;31.76;36.62;;
66335;Laerm;53138;51.496;6.410;2022-12-11T00:08:42;34.04;32.08;36.21;;
66335;Laerm;53138;51.496;6.410;2022-12-11T00:08:53;33.98;31.97;36.18;;
66335;Laerm;53138;51.496;6.410;2022-12-11T00:09:03;34.02;31.83;36.46;;
66335;Laerm;53138;51.496;6.410;2022-12-11T00:09:13;34.20;31.93;41.41;;
66335;Laerm;53138;51.496;6.410;2022-12-11T00:09:23;33.91;32.02;36.13;;
66335;Laerm;53138;51.496;6.410;2022-12-11T00:09:34;33.95;31.48;36.34;;
66335;Laerm;53138;51.496;6.410;2022-12-11T00:09:44;35.86;32.50;39.64;;
66335;Laerm;53138;51.496;6.410;2022-12-11T00:09:54;35.83;32.64;39.73;;
66335;Laerm;53138;51.496;6.410;2022-12-11T00:10:05;33.96;32.23;36.23;;
66335;Laerm;53138;51.496;6.410;2022-12-11T00:10:15;33.43;31.80;35.50;;
66335;Laerm;53138;51.496;6.410;2022-12-11T00:10:25;33.27;31.54;35.74;;
66335;Laerm;53138;51.496;6.410;2022-12-11T00:10:36;33.49;31.54;36.01;;
66335;Laerm;53138;51.496;6.410;2022-12-11T00:10:47;33.26;31.24;35.38;;
66335;Laerm;53138;51.496;6.410;2022-12-11T00:10:58;31.85;28.47;34.98;;
66335;Laerm;53138;51.496;6.410;2022-12-11T00:11:08;29.52;28.37;30.45;;
66335;Laerm;53138;51.496;6.410;2022-12-11T00:11:20;29.48;28.16;30.53;;
66335;Laerm;53138;51.496;6.410;2022-12-11T00:11:31;29.53;28.60;31.18;;
66335;Laerm;53138;51.496;6.410;2022-12-11T00:11:41;29.44;28.37;31.19;;
66335;Laerm;53138;51.496;6.410;2022-12-11T00:11:51;29.53;28.39;31.24;;
66335;Laerm;53138;51.496;6.410;2022-12-11T00:12:01;29.56;28.21;31.60;;
66335;Laerm;53138;51.496;6.410;2022-12-11T00:12:12;29.57;28.60;30.87;;
66335;Laerm;53138;51.496;6.410;2022-12-11T00:12:22;29.77;28.27;31.59;;
66335;Laerm;53138;51.496;6.410;2022-12-11T00:12:32;30.62;29.03;36.42;;
66335;Laerm;53138;51.496;6.410;2022-12-11T00:12:42;31.23;29.30;34.11;;
66335;Laerm;53138;51.496;6.410;2022-12-11T00:12:52;31.04;29.49;33.51;;
66335;Laerm;53138;51.496;6.410;2022-12-11T00:13:03;36.81;30.88;42.34;;
66335;Laerm;53138;51.496;6.410;2022-12-11T00:13:13;43.00;38.26;46.57;;
66335;Laerm;53138;51.496;6.410;2022-12-11T00:13:23;38.18;33.84;45.93;;
66335;Laerm;53138;51.496;6.410;2022-12-11T00:13:33;31.72;29.71;35.37;;
66335;Laerm;53138;51.496;6.410;2022-12-11T00:13:44;34.61;29.81;44.72;;
66335;Laerm;53138;51.496;6.410;2022-12-11T00:13:54;33.10;30.12;39.05;;
66335;Laerm;53138;51.496;6.410;2022-12-11T00:14:04;30.73;29.07;34.21;;
66335;Laerm;53138;51.496;6.410;2022-12-11T00:14:14;30.58;28.81;33.96;;
66335;Laerm;53138;51.496;6.410;2022-12-11T00:14:25;30.18;28.48;34.70;;
66335;Laerm;53138;51.496;6.410;2022-12-11T00:14:35;30.43;28.69;37.10;;
66335;Laerm;53138;51.496;6.410;2022-12-11T00:14:45;29.57;28.48;30.54;;
66335;Laerm;53138;51.496;6.410;2022-12-11T00:14:55;29.39;28.32;30.51;;
66335;Laerm;53138;51.496;6.410;2022-12-11T00:15:06;29.41;28.17;31.08;;
66335;Laerm;53138;51.496;6.410;2022-12-11T00:15:17;29.60;28.45;31.90;;
66335;Laerm;53138;51.496;6.410;2022-12-11T00:15:27;29.75;28.58;30.66;;
66335;Laerm;53138;51.496;6.410;2022-12-11T00:15:38;29.88;28.78;32.53;;
66335;Laerm;53138;51.496;6.410;2022-12-11T00:15:48;29.89;28.65;31.16;;
66335;Laerm;53138;51.496;6.410;2022-12-11T00:15:58;30.66;28.82;33.36;;
66335;Laerm;53138;51.496;6.410;2022-12-11T00:16:08;36.93;30.72;42.14;;
66335;Laerm;53138;51.496;6.410;2022-12-11T00:16:19;37.39;32.65;43.40;;
66335;Laerm;53138;51.496;6.410;2022-12-11T00:16:29;33.59;30.94;37.75;;
66335;Laerm;53138;51.496;6.410;2022-12-11T00:16:39;32.56;29.43;37.22;;
66335;Laerm;53138;51.496;6.410;2022-12-11T00:16:49;40.14;31.68;48.07;;
66335;Laerm;53138;51.496;6.410;2022-12-11T00:17:00;40.29;32.81;48.31;;
66335;Laerm;53138;51.496;6.410;2022-12-11T00:17:10;32.68;30.21;36.85;;
66335;Laerm;53138;51.496;6.410;2022-12-11T00:17:20;35.11;30.89;42.26;;
66335;Laerm;53138;51.496;6.410;2022-12-11T00:17:30;43.03;34.20;48.61;;
66335;Laerm;53138;51.496;6.410;2022-12-11T00:17:40;36.88;30.57;42.80;;
66335;Laerm;53138;51.496;6.410;2022-12-11T00:17:51;31.09;29.62;33.12;;
66335;Laerm;53138;51.496;6.410;2022-12-11T00:18:01;31.13;29.41;33.11;;
66335;Laerm;53138;51.496;6.410;2022-12-11T00:18:11;33.42;30.18;38.79;;
66335;Laerm;53138;51.496;6.410;2022-12-11T00:18:22;40.83;34.89;46.80;;
66335;Laerm;53138;51.496;6.410;2022-12-11T00:18:32;39.46;33.09;44.62;;
66335;Laerm;53138;51.496;6.410;2022-12-11T00:18:42;34.78;31.20;39.14;;
66335;Laerm;53138;51.496;6.410;2022-12-11T00:18:53;32.75;30.52;35.61;;
66335;Laerm;53138;51.496;6.410;2022-12-11T00:19:04;31.73;29.48;33.57;;
66335;Laerm;53138;51.496;6.410;2022-12-11T00:19:14;32.68;29.70;36.63;;
66335;Laerm;53138;51.496;6.410;2022-12-11T00:19:24;41.81;33.91;47.11;;
66335;Laerm;53138;51.496;6.410;2022-12-11T00:19:35;36.01;30.12;41.64;;
66335;Laerm;53138;51.496;6.410;2022-12-11T00:19:45;30.65;29.03;32.36;;
66335;Laerm;53138;51.496;6.410;2022-12-11T00:19:55;30.36;28.55;32.85;;
66335;Laerm;53138;51.496;6.410;2022-12-11T00:20:05;29.80;28.70;31.29;;
66335;Laerm;53138;51.496;6.410;2022-12-11T00:20:17;30.76;28.71;33.88;;
66335;Laerm;53138;51.496;6.410;2022-12-11T00:20:27;31.14;29.48;33.49;;
66335;Laerm;53138;51.496;6.410;2022-12-11T00:20:37;31.21;29.46;34.11;;
66335;Laerm;53138;51.496;6.410;2022-12-11T00:20:47;31.31;29.82;34.83;;
66335;Laerm;53138;51.496;6.410;2022-12-11T00:21:01;31.05;29.36;33.42;;
66335;Laerm;53138;51.496;6.410;2022-12-11T00:21:12;31.02;29.15;33.40;;
66335;Laerm;53138;51.496;6.410;2022-12-11T00:21:23;31.25;29.41;34.18;;
66335;Laerm;53138;51.496;6.410;2022-12-11T00:21:33;31.24;29.58;34.62;;
66335;Laerm;53138;51.496;6.410;2022-12-11T00:21:43;31.09;29.19;33.85;;
66335;Laerm;53138;51.496;6.410;2022-12-11T00:21:54;31.11;29.49;33.74;;
66335;Laerm;53138;51.496;6.410;2022-12-11T00:22:04;31.21;29.19;33.56;;
66335;Laerm;53138;51.496;6.410;2022-12-11T00:22:14;31.28;29.37;33.35;;
66335;Laerm;53138;51.496;6.410;2022-12-11T00:22:24;31.57;29.07;36.06;;
66335;Laerm;53138;51.496;6.410;2022-12-11T00:22:34;31.31;29.32;33.83;;
66335;Laerm;53138;51.496;6.410;2022-12-11T00:22:45;31.05;28.84;34.69;;
66335;Laerm;53138;51.496;6.410;2022-12-11T00:22:55;31.16;28.99;34.30;;
66335;Laerm;53138;51.496;6.410;2022-12-11T00:23:05;31.30;29.24;34.54;;
66335;Laerm;53138;51.496;6.410;2022-12-11T00:23:15;31.33;29.51;33.68;;
66335;Laerm;53138;51.496;6.410;2022-12-11T00:23:26;31.17;29.24;33.42;;
66335;Laerm;53138;51.496;6.410;2022-12-11T00:23:36;31.19;29.22;34.79;;
66335;Laerm;53138;51.496;6.410;2022-12-11T00:23:46;31.37;29.51;34.89;;
66335;Laerm;53138;51.496;6.410;2022-12-11T00:23:56;31.84;29.44;34.41;;
66335;Laerm;53138;51.496;6.410;2022-12-11T00:24:06;35.73;32.43;39.13;;
66335;Laerm;53138;51.496;6.410;2022-12-11T00:24:17;32.50;30.45;35.18;;
66335;Laerm;53138;51.496;6.410;2022-12-11T00:24:27;31.66;29.12;38.24;;
66335;Laerm;53138;51.496;6.410;2022-12-11T00:24:37;29.57;28.47;30.73;;
66335;Laerm;53138;51.496;6.410;2022-12-11T00:24:47;29.82;28.36;31.27;;
66335;Laerm;53138;51.496;6.410;2022-12-11T00:24:57;30.31;28.90;32.63;;
66335;Laerm;53138;51.496;6.410;2022-12-11T00:25:08;29.98;28.71;31.91;;
66335;Laerm;53138;51.496;6.410;2022-12-11T00:25:18;29.67;28.67;34.32;;
66335;Laerm;53138;51.496;6.410;2022-12-11T00:25:28;31.34;28.69;36.95;;
66335;Laerm;53138;51.496;6.410;2022-12-11T00:25:42;40.72;33.78;45.37;;
66335;Laerm;53138;51.496;6.410;2022-12-11T00:25:55;33.71;29.62;39.41;;
66335;Laerm;53138;51.496;6.410;2022-12-11T00:26:06;32.58;29.14;38.36;;
66335;Laerm;53138;51.496;6.410;2022-12-11T00:26:17;33.88;29.12;38.37;;
66335;Laerm;53138;51.496;6.410;2022-12-11T00:26:27;29.92;28.33;32.17;;
66335;Laerm;53138;51.496;6.410;2022-12-11T00:26:37;29.74;28.39;31.15;;
66335;Laerm;53138;51.496;6.410;2022-12-11T00:26:48;29.41;28.44;31.28;;
66335;Laerm;53138;51.496;6.410;2022-12-11T00:26:58;30.30;28.41;33.34;;
66335;Laerm;53138;51.496;6.410;2022-12-11T00:27:08;36.58;31.27;40.95;;
66335;Laerm;53138;51.496;6.410;2022-12-11T00:27:20;33.28;30.36;38.15;;
66335;Laerm;53138;51.496;6.410;2022-12-11T00:27:31;32.27;30.34;35.14;;
66335;Laerm;53138;51.496;6.410;2022-12-11T00:27:41;30.75;28.41;33.79;;
66335;Laerm;53138;51.496;6.410;2022-12-11T00:27:51;30.11;28.94;32.88;;
66335;Laerm;53138;51.496;6.410;2022-12-11T00:28:01;30.87;29.31;34.19;;
66335;Laerm;53138;51.496;6.410;2022-12-11T00:28:15;29.93;28.41;32.08;;
66335;Laerm;53138;51.496;6.410;2022-12-11T00:28:29;29.45;28.41;30.65;;
66335;Laerm;53138;51.496;6.410;2022-12-11T00:28:39;29.37;28.15;30.38;;
66335;Laerm;53138;51.496;6.410;2022-12-11T00:28:53;29.50;28.43;32.42;;
66335;Laerm;53138;51.496;6.410;2022-12-11T00:29:03;29.80;28.56;33.69;;
66335;Laerm;53138;51.496;6.410;2022-12-11T00:29:14;29.64;28.39;31.16;;
66335;Laerm;53138;51.496;6.410;2022-12-11T00:29:24;29.39;27.87;30.46;;
66335;Laerm;53138;51.496;6.410;2022-12-11T00:29:34;29.70;28.29;31.11;;
66335;Laerm;53138;51.496;6.410;2022-12-11T00:29:44;30.30;28.59;32.69;;
66335;Laerm;53138;51.496;6.410;2022-12-11T00:29:54;30.46;29.02;33.32;;
66335;Laerm;53138;51.496;6.410;2022-12-11T00:30:05;34.56;29.62;39.64;;
66335;Laerm;53138;51.496;6.410;2022-12-11T00:30:15;43.51;33.13;50.48;;
66335;Laerm;53138;51.496;6.410;2022-12-11T00:30:25;36.42;29.33;42.36;;
66335;Laerm;53138;51.496;6.410;2022-12-11T00:30:39;29.42;28.34;30.94;;
66335;Laerm;53138;51.496;6.410;2022-12-11T00:30:50;29.31;28.32;30.17;;
66335;Laerm;53138;51.496;6.410;2022-12-11T00:31:06;29.38;28.14;30.56;;
66335;Laerm;53138;51.496;6.410;2022-12-11T00:31:17;29.39;28.40;31.50;;
66335;Laerm;53138;51.496;6.410;2022-12-11T00:31:28;29.32;28.09;30.57;;
66335;Laerm;53138;51.496;6.410;2022-12-11T00:31:38;29.40;28.40;31.38;;
66335;Laerm;53138;51.496;6.410;2022-12-11T00:31:48;29.30;28.48;30.23;;
66335;Laerm;53138;51.496;6.410;2022-12-11T00:31:58;29.48;28.40;30.94;;
66335;Laerm;53138;51.496;6.410;2022-12-11T00:32:08;29.63;28.28;30.93;;
66335;Laerm;53138;51.496;6.410;2022-12-11T00:32:19;29.59;28.55;30.66;;
66335;Laerm;53138;51.496;6.410;2022-12-11T00:32:29;29.48;28.20;30.49;;
66335;Laerm;53138;51.496;6.410;2022-12-11T00:32:40;29.96;28.56;31.60;;
66335;Laerm;53138;51.496;6.410;2022-12-11T00:32:52;30.31;28.80;31.91;;
66335;Laerm;53138;51.496;6.410;2022-12-11T00:33:02;30.66;29.00;32.53;;
66335;Laerm;53138;51.496;6.410;2022-12-11T00:33:13;30.91;29.28;38.57;;
66335;Laerm;53138;51.496;6.410;2022-12-11T00:33:24;31.01;29.47;33.13;;
66335;Laerm;53138;51.496;6.410;2022-12-11T00:33:35;31.28;29.70;33.28;;
66335;Laerm;53138;51.496;6.410;2022-12-11T00:33:45;31.25;29.36;33.68;;
66335;Laerm;53138;51.496;6.410;2022-12-11T00:33:59;31.10;29.08;32.74;;
66335;Laerm;53138;51.496;6.410;2022-12-11T00:34:10;31.05;29.62;33.09;;
66335;Laerm;53138;51.496;6.410;2022-12-11T00:34:21;31.33;29.75;33.11;;
66335;Laerm;53138;51.496;6.410;2022-12-11T00:34:31;31.63;29.73;33.81;;
66335;Laerm;53138;51.496;6.410;2022-12-11T00:34:41;31.42;29.51;33.04;;
66335;Laerm;53138;51.496;6.410;2022-12-11T00:34:51;31.58;29.91;33.51;;
66335;Laerm;53138;51.496;6.410;2022-12-11T00:35:01;31.65;29.99;33.40;;
66335;Laerm;53138;51.496;6.410;2022-12-11T00:35:12;32.38;30.38;34.92;;
66335;Laerm;53138;51.496;6.410;2022-12-11T00:35:22;32.08;29.78;35.60;;
66335;Laerm;53138;51.496;6.410;2022-12-11T00:35:32;31.28;28.97;34.04;;
66335;Laerm;53138;51.496;6.410;2022-12-11T00:35:43;31.17;29.61;34.70;;
66335;Laerm;53138;51.496;6.410;2022-12-11T00:35:54;31.18;29.22;33.53;;
66335;Laerm;53138;51.496;6.410;2022-12-11T00:36:09;31.45;29.19;35.17;;
66335;Laerm;53138;51.496;6.410;2022-12-11T00:36:21;39.02;30.10;44.67;;
66335;Laerm;53138;51.496;6.410;2022-12-11T00:36:32;33.41;30.66;36.87;;
66335;Laerm;53138;51.496;6.410;2022-12-11T00:36:42;31.78;29.96;34.42;;
66335;Laerm;53138;51.496;6.410;2022-12-11T00:36:52;32.10;29.98;35.75;;
66335;Laerm;53138;51.496;6.410;2022-12-11T00:37:02;32.92;29.73;37.86;;
66335;Laerm;53138;51.496;6.410;2022-12-11T00:37:12;31.61;30.08;34.38;;
66335;Laerm;53138;51.496;6.410;2022-12-11T00:37:23;31.57;29.96;33.56;;
66335;Laerm;53138;51.496;6.410;2022-12-11T00:37:33;31.58;29.19;36.31;;
66335;Laerm;53138;51.496;6.410;2022-12-11T00:37:43;31.60;29.27;33.91;;
66335;Laerm;53138;51.496;6.410;2022-12-11T00:37:53;31.58;29.84;34.05;;
66335;Laerm;53138;51.496;6.410;2022-12-11T00:38:04;31.25;29.18;34.15;;
66335;Laerm;53138;51.496;6.410;2022-12-11T00:38:15;31.44;29.97;33.82;;
66335;Laerm;53138;51.496;6.410;2022-12-11T00:38:25;31.34;29.10;33.47;;
66335;Laerm;53138;51.496;6.410;2022-12-11T00:38:36;31.30;29.66;34.33;;
66335;Laerm;53138;51.496;6.410;2022-12-11T00:38:46;31.36;29.02;34.87;;
66335;Laerm;53138;51.496;6.410;2022-12-11T00:38:57;31.26;29.49;34.05;;
66335;Laerm;53138;51.496;6.410;2022-12-11T00:39:08;31.45;29.06;34.08;;
66335;Laerm;53138;51.496;6.410;2022-12-11T00:39:18;31.46;29.50;33.83;;
66335;Laerm;53138;51.496;6.410;2022-12-11T00:39:28;30.14;28.43;33.23;;
66335;Laerm;53138;51.496;6.410;2022-12-11T00:39:38;29.61;28.27;33.35;;
66335;Laerm;53138;51.496;6.410;2022-12-11T00:39:48;29.82;28.81;31.86;;
66335;Laerm;53138;51.496;6.410;2022-12-11T00:39:59;29.86;28.76;31.37;;
66335;Laerm;53138;51.496;6.410;2022-12-11T00:40:09;30.38;28.53;33.32;;
66335;Laerm;53138;51.496;6.410;2022-12-11T00:40:19;35.24;31.56;39.23;;
66335;Laerm;53138;51.496;6.410;2022-12-11T00:40:32;33.60;30.26;38.44;;
66335;Laerm;53138;51.496;6.410;2022-12-11T00:40:42;38.62;32.01;46.24;;
66335;Laerm;53138;51.496;6.410;2022-12-11T00:40:56;43.12;32.95;48.59;;
66335;Laerm;53138;51.496;6.410;2022-12-11T00:41:07;30.92;28.42;34.92;;
66335;Laerm;53138;51.496;6.410;2022-12-11T00:41:17;29.35;28.37;30.91;;
66335;Laerm;53138;51.496;6.410;2022-12-11T00:41:27;29.61;28.10;34.11;;
66335;Laerm;53138;51.496;6.410;2022-12-11T00:41:37;29.44;27.89;31.47;;
66335;Laerm;53138;51.496;6.410;2022-12-11T00:41:48;29.59;28.59;31.73;;
66335;Laerm;53138;51.496;6.410;2022-12-11T00:41:58;29.73;28.31;31.16;;
66335;Laerm;53138;51.496;6.410;2022-12-11T00:42:08;30.16;28.66;31.66;;
66335;Laerm;53138;51.496;6.410;2022-12-11T00:42:19;30.89;29.09;33.48;;
66335;Laerm;53138;51.496;6.410;2022-12-11T00:42:29;30.85;29.13;32.65;;
66335;Laerm;53138;51.496;6.410;2022-12-11T00:42:39;32.96;29.77;37.67;;
66335;Laerm;53138;51.496;6.410;2022-12-11T00:42:49;40.11;32.24;45.23;;
66335;Laerm;53138;51.496;6.410;2022-12-11T00:42:59;30.64;28.64;34.56;;
66335;Laerm;53138;51.496;6.410;2022-12-11T00:43:10;29.35;28.34;30.46;;
66335;Laerm;53138;51.496;6.410;2022-12-11T00:43:20;29.36;28.11;30.89;;
66335;Laerm;53138;51.496;6.410;2022-12-11T00:43:31;29.29;28.22;30.31;;
66335;Laerm;53138;51.496;6.410;2022-12-11T00:43:41;29.29;28.25;31.15;;
66335;Laerm;53138;51.496;6.410;2022-12-11T00:43:51;29.37;28.18;31.11;;
66335;Laerm;53138;51.496;6.410;2022-12-11T00:44:01;31.85;28.55;36.01;;
66335;Laerm;53138;51.496;6.410;2022-12-11T00:44:12;40.73;35.07;45.80;;
66335;Laerm;53138;51.496;6.410;2022-12-11T00:44:22;33.93;30.48;36.55;;
66335;Laerm;53138;51.496;6.410;2022-12-11T00:44:32;32.98;29.26;38.14;;
66335;Laerm;53138;51.496;6.410;2022-12-11T00:44:43;32.44;28.93;35.24;;
66335;Laerm;53138;51.496;6.410;2022-12-11T00:44:53;31.21;28.95;34.53;;
66335;Laerm;53138;51.496;6.410;2022-12-11T00:45:05;30.02;28.63;31.95;;
66335;Laerm;53138;51.496;6.410;2022-12-11T00:45:15;29.74;28.50;31.33;;
66335;Laerm;53138;51.496;6.410;2022-12-11T00:45:25;29.97;28.79;31.48;;
66335;Laerm;53138;51.496;6.410;2022-12-11T00:45:36;29.63;28.33;31.15;;
66335;Laerm;53138;51.496;6.410;2022-12-11T00:45:46;29.58;28.48;32.02;;
66335;Laerm;53138;51.496;6.410;2022-12-11T00:45:57;29.52;28.26;34.39;;
66335;Laerm;53138;51.496;6.410;2022-12-11T00:46:07;29.48;28.43;32.08;;
66335;Laerm;53138;51.496;6.410;2022-12-11T00:46:17;29.38;27.86;30.57;;
66335;Laerm;53138;51.496;6.410;2022-12-11T00:46:28;29.40;27.94;30.52;;
66335;Laerm;53138;51.496;6.410;2022-12-11T00:46:38;29.40;28.06;30.93;;
66335;Laerm;53138;51.496;6.410;2022-12-11T00:46:48;29.44;28.12;30.67;;
66335;Laerm;53138;51.496;6.410;2022-12-11T00:46:58;29.58;28.45;30.97;;
66335;Laerm;53138;51.496;6.410;2022-12-11T00:47:08;29.45;28.50;30.96;;
66335;Laerm;53138;51.496;6.410;2022-12-11T00:47:18;29.55;28.29;32.15;;
66335;Laerm;53138;51.496;6.410;2022-12-11T00:47:29;29.40;28.30;30.46;;
66335;Laerm;53138;51.496;6.410;2022-12-11T00:47:39;29.40;28.16;30.79;;
66335;Laerm;53138;51.496;6.410;2022-12-11T00:47:49;29.49;28.30;31.09;;
66335;Laerm;53138;51.496;6.410;2022-12-11T00:47:59;29.51;28.27;30.85;;
66335;Laerm;53138;51.496;6.410;2022-12-11T00:48:10;30.07;28.72;33.72;;
66335;Laerm;53138;51.496;6.410;2022-12-11T00:48:20;30.16;28.79;31.75;;
66335;Laerm;53138;51.496;6.410;2022-12-11T00:48:31;31.27;28.87;34.20;;
66335;Laerm;53138;51.496;6.410;2022-12-11T00:48:41;38.38;31.05;45.69;;
66335;Laerm;53138;51.496;6.410;2022-12-11T00:48:51;39.71;32.66;46.50;;
66335;Laerm;53138;51.496;6.410;2022-12-11T00:49:02;34.59;31.73;39.07;;
66335;Laerm;53138;51.496;6.410;2022-12-11T00:49:13;42.15;34.19;48.72;;
66335;Laerm;53138;51.496;6.410;2022-12-11T00:49:23;33.59;29.61;38.96;;
66335;Laerm;53138;51.496;6.410;2022-12-11T00:49:33;29.96;28.63;31.12;;
66335;Laerm;53138;51.496;6.410;2022-12-11T00:49:43;29.87;28.41;35.61;;
66335;Laerm;53138;51.496;6.410;2022-12-11T00:49:54;30.03;28.61;31.65;;
66335;Laerm;53138;51.496;6.410;2022-12-11T00:50:04;32.17;29.24;34.97;;
66335;Laerm;53138;51.496;6.410;2022-12-11T00:50:14;34.10;30.32;37.61;;
66335;Laerm;53138;51.496;6.410;2022-12-11T00:50:25;41.83;33.93;49.04;;
66335;Laerm;53138;51.496;6.410;2022-12-11T00:50:35;42.49;34.04;49.89;;
66335;Laerm;53138;51.496;6.410;2022-12-11T00:50:45;32.97;30.85;35.92;;
66335;Laerm;53138;51.496;6.410;2022-12-11T00:50:56;31.82;29.74;35.25;;
66335;Laerm;53138;51.496;6.410;2022-12-11T00:51:06;31.64;30.00;34.03;;
66335;Laerm;53138;51.496;6.410;2022-12-11T00:51:16;31.67;29.82;34.34;;
66335;Laerm;53138;51.496;6.410;2022-12-11T00:51:26;31.63;29.64;33.76;;
66335;Laerm;53138;51.496;6.410;2022-12-11T00:51:37;31.46;29.62;34.04;;
66335;Laerm;53138;51.496;6.410;2022-12-11T00:51:47;36.07;30.32;42.22;;
66335;Laerm;53138;51.496;6.410;2022-12-11T00:51:57;40.14;33.21;45.52;;
66335;Laerm;53138;51.496;6.410;2022-12-11T00:52:08;34.42;30.80;37.84;;
66335;Laerm;53138;51.496;6.410;2022-12-11T00:52:19;32.25;29.90;34.49;;
66335;Laerm;53138;51.496;6.410;2022-12-11T00:52:29;32.45;30.27;36.45;;
66335;Laerm;53138;51.496;6.410;2022-12-11T00:52:40;35.91;32.33;41.54;;
66335;Laerm;53138;51.496;6.410;2022-12-11T00:52:50;41.78;32.78;47.41;;
66335;Laerm;53138;51.496;6.410;2022-12-11T00:53:00;32.50;29.95;34.94;;
66335;Laerm;53138;51.496;6.410;2022-12-11T00:53:10;31.81;29.96;34.64;;
66335;Laerm;53138;51.496;6.410;2022-12-11T00:53:21;39.42;31.65;45.89;;
66335;Laerm;53138;51.496;6.410;2022-12-11T00:53:31;39.35;33.14;45.81;;
66335;Laerm;53138;51.496;6.410;2022-12-11T00:53:41;36.76;32.84;42.20;;
66335;Laerm;53138;51.496;6.410;2022-12-11T00:53:52;45.21;38.93;50.55;;
66335;Laerm;53138;51.496;6.410;2022-12-11T00:54:02;37.03;33.01;41.43;;
66335;Laerm;53138;51.496;6.410;2022-12-11T00:54:13;33.68;31.41;38.09;;
66335;Laerm;53138;51.496;6.410;2022-12-11T00:54:23;42.12;34.57;47.22;;
66335;Laerm;53138;51.496;6.410;2022-12-11T00:54:33;34.80;29.20;41.30;;
66335;Laerm;53138;51.496;6.410;2022-12-11T00:54:43;30.26;28.61;32.35;;
66335;Laerm;53138;51.496;6.410;2022-12-11T00:54:54;29.72;28.71;30.79;;
66335;Laerm;53138;51.496;6.410;2022-12-11T00:55:04;29.87;28.69;31.06;;
66335;Laerm;53138;51.496;6.410;2022-12-11T00:55:14;29.86;28.72;31.11;;
66335;Laerm;53138;51.496;6.410;2022-12-11T00:55:24;29.48;28.25;30.49;;
66335;Laerm;53138;51.496;6.410;2022-12-11T00:55:38;29.53;28.42;31.49;;
66335;Laerm;53138;51.496;6.410;2022-12-11T00:55:48;33.59;28.58;38.85;;
66335;Laerm;53138;51.496;6.410;2022-12-11T00:55:58;40.08;32.38;45.61;;
66335;Laerm;53138;51.496;6.410;2022-12-11T00:56:10;34.01;29.64;38.82;;
66335;Laerm;53138;51.496;6.410;2022-12-11T00:56:21;30.36;28.91;31.76;;
66335;Laerm;53138;51.496;6.410;2022-12-11T00:56:31;34.54;29.92;39.74;;
66335;Laerm;53138;51.496;6.410;2022-12-11T00:56:42;42.18;36.34;46.72;;
66335;Laerm;53138;51.496;6.410;2022-12-11T00:56:53;36.29;32.29;39.73;;
66335;Laerm;53138;51.496;6.410;2022-12-11T00:57:04;40.61;33.10;46.26;;
66335;Laerm;53138;51.496;6.410;2022-12-11T00:57:14;34.22;30.31;39.42;;
66335;Laerm;53138;51.496;6.410;2022-12-11T00:57:24;30.26;28.85;31.66;;
66335;Laerm;53138;51.496;6.410;2022-12-11T00:57:34;30.67;29.24;31.94;;
66335;Laerm;53138;51.496;6.410;2022-12-11T00:57:44;30.57;29.21;32.33;;
66335;Laerm;53138;51.496;6.410;2022-12-11T00:57:55;30.88;29.31;32.52;;
66335;Laerm;53138;51.496;6.410;2022-12-11T00:58:05;30.99;29.37;32.67;;
66335;Laerm;53138;51.496;6.410;2022-12-11T00:58:16;31.03;29.38;32.63;;
66335;Laerm;53138;51.496;6.410;2022-12-11T00:58:26;31.19;29.69;32.98;;
66335;Laerm;53138;51.496;6.410;2022-12-11T00:58:36;31.32;29.48;33.34;;
66335;Laerm;53138;51.496;6.410;2022-12-11T00:58:47;31.17;29.64;32.98;;
66335;Laerm;53138;51.496;6.410;2022-12-11T00:58:58;31.23;30.01;32.83;;